createdAt,value
2023-04-17T00:03:38.336Z,8.40
2023-04-17T00:07:41.308Z,8.40
2023-04-17T00:11:43.011Z,8.40
2023-04-17T00:15:47.700Z,8.30
2023-04-17T00:19:50.223Z,8.30
2023-04-17T00:23:51.901Z,8.30
2023-04-17T00:27:53.512Z,8.30
2023-04-17T00:31:55.292Z,8.20
2023-04-17T00:35:57.202Z,8.30
2023-04-17T00:39:58.934Z,8.20
2023-04-17T00:44:00.611Z,8.20
2023-04-17T00:48:04.755Z,8.20
2023-04-17T00:52:06.807Z,8.10
2023-04-17T00:56:09.335Z,8.10
2023-04-17T01:00:12.330Z,8.20
2023-04-17T01:04:14.083Z,8.10
2023-04-17T01:08:16.135Z,8.20
2023-04-17T01:12:21.846Z,8.20
2023-04-17T01:16:27.498Z,8.10
2023-04-17T01:20:31.366Z,8.10
2023-04-17T01:24:33.107Z,8.20
2023-04-17T01:28:34.757Z,8.10
2023-04-17T01:32:36.774Z,8.10
2023-04-17T01:36:38.530Z,8.20
2023-04-17T01:40:40.349Z,8.10
2023-04-17T01:44:44.530Z,8.10
2023-04-17T01:48:46.592Z,8.20
2023-04-17T01:52:48.323Z,8.10
2023-04-17T01:56:49.953Z,8.20
2023-04-17T02:00:52.009Z,8.10
2023-04-17T02:04:53.729Z,8.20
2023-04-17T02:08:55.381Z,8.20
2023-04-17T02:12:57.059Z,8.20
2023-04-17T02:16:58.979Z,8.10
2023-04-17T02:21:00.780Z,8.20
2023-04-17T02:25:02.622Z,8.20
2023-04-17T02:29:04.418Z,8.10
2023-04-17T02:33:06.075Z,8.10
2023-04-17T02:37:07.872Z,8.10
2023-04-17T02:41:10.138Z,8.10
2023-04-17T02:45:11.982Z,8.00
2023-04-17T02:49:13.892Z,8.10
2023-04-17T02:53:15.698Z,8.10
2023-04-17T02:57:17.335Z,8.10
2023-04-17T03:01:19.034Z,8.00
2023-04-17T03:05:23.223Z,8.00
2023-04-17T03:09:26.009Z,8.10
2023-04-17T03:13:27.845Z,7.90
2023-04-17T03:17:29.769Z,8.00
2023-04-17T03:21:31.752Z,8.10
2023-04-17T03:25:33.464Z,8.00
2023-04-17T03:29:35.581Z,8.00
2023-04-17T03:33:38.610Z,8.00
2023-04-17T03:37:40.207Z,8.00
2023-04-17T03:41:41.880Z,8.00
2023-04-17T03:45:43.617Z,8.00
2023-04-17T03:49:45.353Z,8.00
2023-04-17T03:53:47.055Z,7.90
2023-04-17T03:57:50.988Z,7.90
2023-04-17T04:01:54.199Z,7.80
2023-04-17T04:05:56.008Z,7.90
2023-04-17T04:09:57.727Z,7.90
2023-04-17T04:13:59.315Z,7.80
2023-04-17T04:18:01.008Z,7.80
2023-04-17T04:22:06.241Z,7.80
2023-04-17T04:26:08.638Z,7.90
2023-04-17T04:30:11.118Z,7.70
2023-04-17T04:34:13.363Z,7.70
2023-04-17T04:38:17.055Z,7.80
2023-04-17T04:42:22.427Z,7.90
2023-04-17T04:46:24.438Z,7.80
2023-04-17T04:50:26.263Z,7.80
2023-04-17T04:54:28.007Z,7.80
2023-04-17T04:58:29.820Z,7.80
2023-04-17T05:02:31.681Z,7.90
2023-04-17T05:06:33.504Z,7.80
2023-04-17T05:10:38.035Z,7.90
2023-04-17T05:14:39.842Z,7.80
2023-04-17T05:18:41.514Z,7.80
2023-04-17T05:22:43.217Z,7.90
2023-04-17T05:26:45.096Z,7.70
2023-04-17T05:30:46.811Z,7.90
2023-04-17T05:34:48.507Z,7.90
2023-04-17T05:38:50.691Z,7.80
2023-04-17T05:42:52.393Z,7.80
2023-04-17T05:46:57.104Z,7.90
2023-04-17T05:50:59.012Z,7.90
2023-04-17T05:55:00.735Z,8.00
2023-04-17T05:59:02.318Z,7.80
2023-04-17T06:03:05.022Z,7.80
2023-04-17T06:07:08.072Z,8.10
2023-04-17T06:11:09.953Z,8.10
2023-04-17T06:15:24.182Z,8.00
2023-04-17T06:19:26.107Z,7.90
2023-04-17T06:23:27.756Z,8.10
2023-04-17T06:27:29.441Z,8.10
2023-04-17T06:31:31.817Z,8.10
2023-04-17T06:35:34.008Z,8.00
2023-04-17T06:39:36.829Z,8.00
2023-04-17T06:43:38.678Z,8.10
2023-04-17T06:47:42.390Z,8.10
2023-04-17T06:51:45.825Z,8.00
2023-04-17T06:55:49.008Z,8.20
2023-04-17T06:59:50.797Z,8.20
2023-04-17T07:03:52.629Z,8.00
2023-04-17T07:07:58.324Z,8.00
2023-04-17T07:12:00.062Z,8.10
2023-04-17T07:16:02.098Z,8.20
2023-04-17T07:20:07.837Z,8.00
2023-04-17T07:24:09.572Z,8.10
2023-04-17T07:28:21.233Z,8.20
2023-04-17T07:32:26.422Z,8.20
2023-04-17T07:36:29.863Z,8.10
2023-04-17T07:40:33.231Z,8.10
2023-04-17T07:44:35.440Z,8.10
2023-04-17T07:48:40.434Z,8.20
2023-04-17T07:52:42.173Z,8.10
2023-04-17T07:56:46.573Z,8.00
2023-04-17T08:00:51.060Z,8.10
2023-04-17T08:04:57.742Z,8.10
2023-04-17T08:09:02.112Z,8.30
2023-04-17T08:13:03.953Z,8.30
2023-04-17T08:17:07.560Z,8.30
2023-04-17T08:21:09.498Z,8.30
2023-04-17T08:25:13.841Z,8.30
2023-04-17T08:29:15.988Z,8.20
2023-04-17T08:33:18.608Z,8.40
2023-04-17T08:37:20.416Z,8.50
2023-04-17T08:41:25.163Z,8.40
2023-04-17T08:45:27.418Z,8.30
2023-04-17T08:49:29.639Z,8.40
2023-04-17T08:53:31.910Z,8.40
2023-04-17T08:57:33.671Z,8.70
2023-04-17T09:01:35.806Z,8.60
2023-04-17T09:05:41.929Z,8.70
2023-04-17T09:09:55.456Z,8.70
2023-04-17T09:13:57.139Z,8.90
2023-04-17T09:17:58.911Z,8.80
2023-04-17T09:22:20.812Z,8.90
2023-04-17T09:26:25.130Z,8.80
2023-04-17T09:30:27.430Z,8.90
2023-04-17T09:34:29.253Z,8.90
2023-04-17T09:38:38.333Z,9.10
2023-04-17T09:42:53.506Z,8.90
2023-04-17T09:46:56.253Z,8.90
2023-04-17T09:50:58.145Z,8.90
2023-04-17T09:55:06.867Z,8.90
2023-04-17T09:59:09.848Z,9.20
2023-04-17T10:03:15.535Z,9.20
2023-04-17T10:07:18.661Z,9.50
2023-04-17T10:11:27.425Z,9.70
2023-04-17T10:15:30.524Z,9.60
2023-04-17T10:19:33.517Z,9.70
2023-04-17T10:23:35.559Z,9.90
2023-04-17T10:27:37.329Z,10.10
2023-04-17T10:32:10.726Z,10.20
2023-04-17T10:36:32.538Z,10.50
2023-04-17T10:40:38.722Z,10.80
2023-04-17T10:44:40.619Z,11.40
2023-04-17T10:48:49.773Z,11.00
2023-04-17T10:52:51.665Z,11.10
2023-04-17T10:56:54.047Z,11.20
2023-04-17T11:00:55.843Z,10.80
2023-04-17T11:05:07.689Z,10.70
2023-04-17T11:09:10.939Z,10.80
2023-04-17T11:13:12.643Z,10.60
2023-04-17T11:17:14.648Z,10.70
2023-04-17T11:21:16.613Z,11.00
2023-04-17T11:25:27.060Z,11.70
2023-04-17T11:29:31.376Z,11.60
2023-04-17T11:33:36.952Z,11.80
2023-04-17T11:38:33.803Z,12.20
2023-04-17T11:42:35.677Z,12.20
2023-04-17T11:46:37.591Z,12.40
2023-04-17T11:50:40.954Z,11.90
2023-04-17T11:54:42.716Z,11.70
2023-04-17T11:58:54.181Z,11.70
2023-04-17T12:02:58.061Z,11.60
2023-04-17T12:07:01.264Z,11.80
2023-04-17T12:11:02.822Z,12.10
2023-04-17T12:15:05.535Z,12.00
2023-04-17T12:19:07.940Z,11.90
2023-04-17T12:23:09.554Z,12.00
2023-04-17T12:27:11.438Z,12.20
2023-04-17T12:31:13.743Z,12.60
2023-04-17T12:35:22.978Z,12.80
2023-04-17T12:39:24.703Z,12.90
2023-04-17T12:43:26.353Z,13.20
2023-04-17T12:47:28.629Z,13.40
2023-04-17T12:51:31.095Z,13.10
2023-04-17T12:55:33.068Z,13.40
2023-04-17T12:59:34.797Z,13.30
2023-04-17T13:03:36.730Z,13.60
2023-04-17T13:07:38.477Z,13.70
2023-04-17T13:11:40.485Z,14.00
2023-04-17T13:15:42.387Z,13.60
2023-04-17T13:19:44.469Z,13.40
2023-04-17T13:23:46.127Z,13.40
2023-04-17T13:27:48.201Z,13.20
2023-04-17T13:31:50.012Z,13.20
2023-04-17T13:35:53.225Z,13.00
2023-04-17T13:39:54.938Z,12.90
2023-04-17T13:43:56.812Z,13.00
2023-04-17T13:48:00.156Z,13.00
2023-04-17T13:52:03.032Z,13.00
2023-04-17T13:56:04.974Z,12.90
2023-04-17T14:00:07.718Z,12.90
2023-04-17T14:04:09.873Z,13.00
2023-04-17T14:08:11.873Z,12.80
2023-04-17T14:12:19.657Z,13.00
2023-04-17T14:16:21.612Z,12.90
2023-04-17T14:20:23.375Z,13.10
2023-04-17T14:24:25.089Z,13.10
2023-04-17T14:28:26.829Z,13.10
2023-04-17T14:32:28.516Z,13.00
2023-04-17T14:36:31.077Z,13.00
2023-04-17T14:40:33.306Z,12.80
2023-04-17T14:44:35.015Z,12.90
2023-04-17T14:48:47.965Z,12.80
2023-04-17T14:52:57.126Z,12.70
2023-04-17T14:56:58.818Z,12.80
2023-04-17T15:01:00.627Z,12.90
2023-04-17T15:05:02.386Z,13.20
2023-04-17T15:09:04.208Z,13.20
2023-04-17T15:13:05.929Z,13.20
2023-04-17T15:17:11.113Z,13.20
2023-04-17T15:21:12.806Z,13.30
2023-04-17T15:25:14.831Z,13.20
2023-04-17T15:29:16.487Z,13.10
2023-04-17T15:33:20.063Z,13.20
2023-04-17T15:37:21.848Z,13.10
2023-04-17T15:41:24.026Z,12.90
2023-04-17T15:45:26.802Z,13.00
2023-04-17T15:49:29.752Z,12.90
2023-04-17T15:53:31.545Z,12.90
2023-04-17T15:57:33.266Z,12.90
2023-04-17T16:01:35.102Z,12.80
2023-04-17T16:05:36.850Z,12.90
2023-04-17T16:09:39.928Z,12.80
2023-04-17T16:13:41.640Z,12.80
2023-04-17T16:17:44.137Z,12.70
2023-04-17T16:21:45.899Z,12.60
2023-04-17T16:25:47.687Z,12.60
2023-04-17T16:29:49.438Z,12.60
2023-04-17T16:33:54.910Z,12.70
2023-04-17T16:37:56.758Z,12.70
2023-04-17T16:41:58.412Z,12.60
2023-04-17T16:46:05.474Z,12.70
2023-04-17T16:50:12.838Z,12.60
2023-04-17T16:54:14.647Z,12.70
2023-04-17T16:58:16.475Z,12.60
2023-04-17T17:02:18.215Z,12.60
2023-04-17T17:06:20.803Z,12.50
2023-04-17T17:10:22.487Z,12.50
2023-04-17T17:14:24.168Z,12.50
2023-04-17T17:18:26.052Z,12.40
2023-04-17T17:22:27.763Z,12.40
2023-04-17T17:26:30.320Z,12.30
2023-04-17T17:30:32.129Z,12.40
2023-04-17T17:34:33.770Z,12.40
2023-04-17T17:38:35.501Z,12.40
2023-04-17T17:42:37.254Z,12.30
2023-04-17T17:46:39.116Z,12.40
2023-04-17T17:50:41.343Z,12.30
2023-04-17T17:54:43.028Z,12.30
2023-04-17T17:58:44.883Z,12.20
2023-04-17T18:02:46.776Z,12.10
2023-04-17T18:06:48.672Z,12.20
2023-04-17T18:10:50.908Z,12.10
2023-04-17T18:14:52.743Z,12.00
2023-04-17T18:18:54.454Z,11.90
2023-04-17T18:22:56.324Z,11.70
2023-04-17T18:26:58.292Z,11.70
2023-04-17T18:31:00.082Z,11.80
2023-04-17T18:35:01.992Z,11.80
2023-04-17T18:39:03.912Z,11.60
2023-04-17T18:43:06.100Z,11.60
2023-04-17T18:47:08.011Z,11.50
2023-04-17T18:51:17.278Z,11.50
2023-04-17T18:55:19.129Z,11.40
2023-04-17T18:59:21.335Z,11.40
2023-04-17T19:03:23.085Z,11.40
2023-04-17T19:07:24.898Z,11.50
2023-04-17T19:11:29.544Z,11.50
2023-04-17T19:15:31.247Z,11.40
2023-04-17T19:19:32.912Z,11.40
2023-04-17T19:23:36.186Z,11.50
2023-04-17T19:27:37.991Z,11.40
2023-04-17T19:31:40.418Z,11.30
2023-04-17T19:35:42.177Z,11.20
2023-04-17T19:39:43.925Z,11.20
2023-04-17T19:43:54.059Z,11.10
2023-04-17T19:47:57.105Z,11.10
2023-04-17T19:52:00.885Z,11.00
2023-04-17T19:56:04.229Z,10.80
2023-04-17T20:00:08.105Z,10.70
2023-04-17T20:04:10.042Z,10.60
2023-04-17T20:08:11.918Z,10.60
2023-04-17T20:12:13.660Z,10.50
2023-04-17T20:16:15.713Z,10.30
2023-04-17T20:20:17.516Z,10.30
2023-04-17T20:24:19.270Z,10.40
2023-04-17T20:28:21.197Z,10.40
2023-04-17T20:32:32.606Z,10.40
2023-04-17T20:36:35.776Z,10.30
2023-04-17T20:40:37.553Z,10.30
2023-04-17T20:44:39.236Z,10.20
2023-04-17T20:48:40.924Z,10.10
2023-04-17T20:52:42.629Z,9.90
2023-04-17T20:56:44.378Z,9.70
2023-04-17T21:01:00.136Z,9.60
2023-04-17T21:05:03.445Z,9.50
2023-04-17T21:09:05.345Z,9.40
2023-04-17T21:13:07.019Z,9.20
2023-04-17T21:17:08.778Z,9.20
2023-04-17T21:21:10.532Z,9.10
2023-04-17T21:25:12.210Z,9.10
2023-04-17T21:29:14.733Z,9.10
2023-04-17T21:33:16.705Z,9.10
2023-04-17T21:37:18.442Z,9.10
2023-04-17T21:41:20.130Z,9.00
2023-04-17T21:45:21.859Z,9.00
2023-04-17T21:49:23.723Z,8.90
2023-04-17T21:53:25.521Z,9.00
2023-04-17T21:57:30.510Z,9.00
2023-04-17T22:01:32.233Z,8.70
2023-04-17T22:05:33.940Z,8.40
2023-04-17T22:09:35.684Z,8.50
2023-04-17T22:13:37.493Z,8.70
2023-04-17T22:17:39.267Z,8.80
2023-04-17T22:21:40.966Z,8.70
2023-04-17T22:25:42.641Z,8.70
2023-04-17T22:29:44.392Z,8.90
2023-04-17T22:33:46.081Z,8.90
2023-04-17T22:37:47.710Z,8.80
2023-04-17T22:41:49.350Z,8.80
2023-04-17T22:45:51.061Z,8.80
2023-04-17T22:49:53.602Z,8.50
2023-04-17T22:53:55.951Z,8.50
2023-04-17T22:57:57.662Z,8.60
2023-04-17T23:01:59.509Z,8.70
2023-04-17T23:06:01.528Z,8.70
2023-04-17T23:10:03.349Z,8.60
2023-04-17T23:14:05.004Z,8.40
2023-04-17T23:18:06.714Z,8.50
2023-04-17T23:22:09.845Z,8.40
2023-04-17T23:26:13.119Z,8.20
2023-04-17T23:30:16.446Z,8.10
2023-04-17T23:34:18.116Z,7.80
2023-04-17T23:38:19.788Z,7.80
2023-04-17T23:42:21.542Z,7.80
2023-04-17T23:46:23.373Z,7.90
2023-04-17T23:50:25.977Z,7.80
2023-04-17T23:54:27.695Z,7.50
2023-04-17T23:58:29.366Z,7.20
